sensor_id;sensor_type;location;lat;lon;timestamp;P1;durP1;ratioP1;P2;durP2;ratioP2
5273;SDS011;56254;50.956;7.010;2022-11-21T00:00:44;21.97;;;4.30;;
5273;SDS011;56254;50.956;7.010;2022-11-21T00:03:13;34.03;;;4.77;;
5273;SDS011;56254;50.956;7.010;2022-11-21T00:05:40;28.20;;;4.87;;
5273;SDS011;56254;50.956;7.010;2022-11-21T00:08:08;26.37;;;4.40;;
5273;SDS011;56254;50.956;7.010;2022-11-21T00:10:35;22.53;;;3.70;;
5273;SDS011;56254;50.956;7.010;2022-11-21T00:13:03;36.93;;;4.60;;
5273;SDS011;56254;50.956;7.010;2022-11-21T00:15:30;14.90;;;2.57;;
5273;SDS011;56254;50.956;7.010;2022-11-21T00:17:57;43.67;;;5.73;;
5273;SDS011;56254;50.956;7.010;2022-11-21T00:20:26;34.17;;;4.67;;
5273;SDS011;56254;50.956;7.010;2022-11-21T00:22:51;20.33;;;4.10;;
5273;SDS011;56254;50.956;7.010;2022-11-21T00:25:17;20.43;;;3.90;;
5273;SDS011;56254;50.956;7.010;2022-11-21T00:27:43;33.00;;;5.20;;
5273;SDS011;56254;50.956;7.010;2022-11-21T00:30:09;29.30;;;3.60;;
5273;SDS011;56254;50.956;7.010;2022-11-21T00:32:35;20.10;;;3.77;;
5273;SDS011;56254;50.956;7.010;2022-11-21T00:35:01;27.27;;;3.80;;
5273;SDS011;56254;50.956;7.010;2022-11-21T00:37:27;23.90;;;4.27;;
5273;SDS011;56254;50.956;7.010;2022-11-21T00:39:53;17.10;;;3.90;;
5273;SDS011;56254;50.956;7.010;2022-11-21T00:42:18;27.87;;;4.00;;
5273;SDS011;56254;50.956;7.010;2022-11-21T00:44:44;11.53;;;3.60;;
5273;SDS011;56254;50.956;7.010;2022-11-21T00:47:10;37.00;;;4.30;;
5273;SDS011;56254;50.956;7.010;2022-11-21T00:49:35;36.07;;;4.40;;
5273;SDS011;56254;50.956;7.010;2022-11-21T00:52:01;34.50;;;4.87;;
5273;SDS011;56254;50.956;7.010;2022-11-21T00:54:27;33.53;;;5.10;;
5273;SDS011;56254;50.956;7.010;2022-11-21T00:56:53;32.00;;;5.47;;
5273;SDS011;56254;50.956;7.010;2022-11-21T00:59:19;26.17;;;4.07;;
5273;SDS011;56254;50.956;7.010;2022-11-21T01:01:44;42.43;;;4.77;;
5273;SDS011;56254;50.956;7.010;2022-11-21T01:04:10;16.13;;;3.63;;
5273;SDS011;56254;50.956;7.010;2022-11-21T01:06:36;39.00;;;4.90;;
5273;SDS011;56254;50.956;7.010;2022-11-21T01:09:02;21.30;;;4.20;;
5273;SDS011;56254;50.956;7.010;2022-11-21T01:11:28;27.13;;;4.40;;
5273;SDS011;56254;50.956;7.010;2022-11-21T01:13:54;30.20;;;4.67;;
5273;SDS011;56254;50.956;7.010;2022-11-21T01:16:22;21.43;;;4.37;;
5273;SDS011;56254;50.956;7.010;2022-11-21T01:18:49;31.47;;;3.60;;
5273;SDS011;56254;50.956;7.010;2022-11-21T01:21:17;27.47;;;4.20;;
5273;SDS011;56254;50.956;7.010;2022-11-21T01:23:46;19.37;;;4.97;;
5273;SDS011;56254;50.956;7.010;2022-11-21T01:26:13;39.53;;;4.37;;
5273;SDS011;56254;50.956;7.010;2022-11-21T01:28:40;25.37;;;5.57;;
5273;SDS011;56254;50.956;7.010;2022-11-21T01:31:07;23.80;;;4.73;;
5273;SDS011;56254;50.956;7.010;2022-11-21T01:33:34;42.47;;;6.10;;
5273;SDS011;56254;50.956;7.010;2022-11-21T01:36:07;19.10;;;4.30;;
5273;SDS011;56254;50.956;7.010;2022-11-21T01:38:34;25.83;;;5.27;;
5273;SDS011;56254;50.956;7.010;2022-11-21T01:41:00;44.60;;;6.60;;
5273;SDS011;56254;50.956;7.010;2022-11-21T01:43:25;24.87;;;5.07;;
5273;SDS011;56254;50.956;7.010;2022-11-21T01:54:00;32.37;;;5.00;;
5273;SDS011;56254;50.956;7.010;2022-11-21T01:57:02;31.90;;;5.30;;
5273;SDS011;56254;50.956;7.010;2022-11-21T02:02:22;24.57;;;4.87;;
5273;SDS011;56254;50.956;7.010;2022-11-21T02:04:51;28.97;;;5.03;;
5273;SDS011;56254;50.956;7.010;2022-11-21T02:07:18;27.80;;;4.40;;
5273;SDS011;56254;50.956;7.010;2022-11-21T02:09:47;24.13;;;4.90;;
5273;SDS011;56254;50.956;7.010;2022-11-21T02:14:50;31.87;;;5.23;;
5273;SDS011;56254;50.956;7.010;2022-11-21T02:17:17;39.13;;;5.20;;
5273;SDS011;56254;50.956;7.010;2022-11-21T02:19:49;18.03;;;4.00;;
5273;SDS011;56254;50.956;7.010;2022-11-21T02:22:27;46.90;;;5.23;;
5273;SDS011;56254;50.956;7.010;2022-11-21T02:25:20;31.60;;;5.23;;
5273;SDS011;56254;50.956;7.010;2022-11-21T02:27:48;9.13;;;3.93;;
5273;SDS011;56254;50.956;7.010;2022-11-21T02:30:17;13.13;;;3.37;;
5273;SDS011;56254;50.956;7.010;2022-11-21T02:32:44;24.10;;;5.07;;
5273;SDS011;56254;50.956;7.010;2022-11-21T02:35:13;26.20;;;5.47;;
5273;SDS011;56254;50.956;7.010;2022-11-21T02:37:41;51.37;;;4.77;;
5273;SDS011;56254;50.956;7.010;2022-11-21T02:40:11;38.10;;;5.00;;
5273;SDS011;56254;50.956;7.010;2022-11-21T02:45:44;17.77;;;4.40;;
5273;SDS011;56254;50.956;7.010;2022-11-21T02:48:09;16.17;;;3.80;;
5273;SDS011;56254;50.956;7.010;2022-11-21T02:50:36;32.33;;;4.17;;
5273;SDS011;56254;50.956;7.010;2022-11-21T02:53:07;17.33;;;3.90;;
5273;SDS011;56254;50.956;7.010;2022-11-21T02:55:39;16.77;;;4.00;;
5273;SDS011;56254;50.956;7.010;2022-11-21T02:58:05;38.67;;;4.07;;
5273;SDS011;56254;50.956;7.010;2022-11-21T03:00:31;17.83;;;3.97;;
5273;SDS011;56254;50.956;7.010;2022-11-21T03:02:59;21.30;;;4.20;;
5273;SDS011;56254;50.956;7.010;2022-11-21T03:05:25;16.10;;;4.30;;
5273;SDS011;56254;50.956;7.010;2022-11-21T03:07:50;12.93;;;3.80;;
5273;SDS011;56254;50.956;7.010;2022-11-21T03:10:16;23.67;;;3.73;;
5273;SDS011;56254;50.956;7.010;2022-11-21T03:12:42;14.93;;;3.80;;
5273;SDS011;56254;50.956;7.010;2022-11-21T03:15:09;13.87;;;3.77;;
5273;SDS011;56254;50.956;7.010;2022-11-21T03:17:37;10.27;;;3.13;;
5273;SDS011;56254;50.956;7.010;2022-11-21T03:20:03;20.00;;;4.43;;
5273;SDS011;56254;50.956;7.010;2022-11-21T03:22:29;13.07;;;3.03;;
5273;SDS011;56254;50.956;7.010;2022-11-21T03:24:55;17.30;;;3.27;;
5273;SDS011;56254;50.956;7.010;2022-11-21T03:27:22;25.67;;;3.53;;
5273;SDS011;56254;50.956;7.010;2022-11-21T03:29:48;33.07;;;4.80;;
5273;SDS011;56254;50.956;7.010;2022-11-21T03:32:14;24.23;;;3.73;;
5273;SDS011;56254;50.956;7.010;2022-11-21T03:34:39;22.70;;;2.90;;
5273;SDS011;56254;50.956;7.010;2022-11-21T03:37:05;10.30;;;3.00;;
5273;SDS011;56254;50.956;7.010;2022-11-21T03:39:31;15.47;;;3.23;;
5273;SDS011;56254;50.956;7.010;2022-11-21T03:41:56;12.13;;;3.43;;
5273;SDS011;56254;50.956;7.010;2022-11-21T03:44:22;16.83;;;3.10;;
5273;SDS011;56254;50.956;7.010;2022-11-21T03:46:48;24.80;;;2.80;;
5273;SDS011;56254;50.956;7.010;2022-11-21T03:49:14;14.77;;;3.13;;
5273;SDS011;56254;50.956;7.010;2022-11-21T03:51:41;23.57;;;4.17;;
5273;SDS011;56254;50.956;7.010;2022-11-21T03:54:07;16.60;;;4.50;;
5273;SDS011;56254;50.956;7.010;2022-11-21T03:56:33;14.30;;;2.67;;
5273;SDS011;56254;50.956;7.010;2022-11-21T03:58:59;15.40;;;2.97;;
5273;SDS011;56254;50.956;7.010;2022-11-21T04:01:25;9.03;;;2.43;;
5273;SDS011;56254;50.956;7.010;2022-11-21T04:03:51;21.80;;;3.23;;
5273;SDS011;56254;50.956;7.010;2022-11-21T04:06:19;13.53;;;3.10;;
5273;SDS011;56254;50.956;7.010;2022-11-21T04:08:46;15.83;;;3.37;;
5273;SDS011;56254;50.956;7.010;2022-11-21T04:11:14;7.63;;;2.43;;
5273;SDS011;56254;50.956;7.010;2022-11-21T04:13:39;21.03;;;3.23;;
5273;SDS011;56254;50.956;7.010;2022-11-21T04:16:05;16.10;;;2.80;;
5273;SDS011;56254;50.956;7.010;2022-11-21T04:18:32;15.30;;;3.30;;
5273;SDS011;56254;50.956;7.010;2022-11-21T04:20:59;16.03;;;3.57;;
5273;SDS011;56254;50.956;7.010;2022-11-21T04:23:26;16.80;;;2.13;;
5273;SDS011;56254;50.956;7.010;2022-11-21T04:25:52;19.50;;;3.83;;
5273;SDS011;56254;50.956;7.010;2022-11-21T04:28:18;14.20;;;2.67;;
5273;SDS011;56254;50.956;7.010;2022-11-21T04:30:44;15.93;;;3.70;;
5273;SDS011;56254;50.956;7.010;2022-11-21T04:33:11;24.67;;;2.93;;
5273;SDS011;56254;50.956;7.010;2022-11-21T04:35:38;24.73;;;3.70;;
5273;SDS011;56254;50.956;7.010;2022-11-21T04:38:05;11.73;;;2.83;;
5273;SDS011;56254;50.956;7.010;2022-11-21T04:40:31;15.10;;;2.80;;
5273;SDS011;56254;50.956;7.010;2022-11-21T04:42:57;17.10;;;3.77;;
5273;SDS011;56254;50.956;7.010;2022-11-21T04:45:22;13.30;;;3.90;;
5273;SDS011;56254;50.956;7.010;2022-11-21T04:47:48;16.33;;;4.87;;
5273;SDS011;56254;50.956;7.010;2022-11-21T04:50:16;10.33;;;3.17;;
5273;SDS011;56254;50.956;7.010;2022-11-21T04:52:52;10.33;;;3.33;;
5273;SDS011;56254;50.956;7.010;2022-11-21T04:55:20;10.10;;;2.90;;
5273;SDS011;56254;50.956;7.010;2022-11-21T04:57:47;8.70;;;2.90;;
5273;SDS011;56254;50.956;7.010;2022-11-21T05:00:14;21.70;;;4.50;;
5273;SDS011;56254;50.956;7.010;2022-11-21T05:02:42;7.43;;;3.73;;
5273;SDS011;56254;50.956;7.010;2022-11-21T05:05:08;8.50;;;3.10;;
5273;SDS011;56254;50.956;7.010;2022-11-21T05:07:34;8.63;;;2.97;;
5273;SDS011;56254;50.956;7.010;2022-11-21T05:10:00;18.37;;;4.60;;
5273;SDS011;56254;50.956;7.010;2022-11-21T05:12:25;15.00;;;4.40;;
5273;SDS011;56254;50.956;7.010;2022-11-21T05:15:10;3.90;;;2.20;;
5273;SDS011;56254;50.956;7.010;2022-11-21T05:17:35;17.93;;;4.17;;
5273;SDS011;56254;50.956;7.010;2022-11-21T05:20:01;24.93;;;4.80;;
5273;SDS011;56254;50.956;7.010;2022-11-21T05:22:27;16.87;;;4.43;;
5273;SDS011;56254;50.956;7.010;2022-11-21T05:24:53;18.63;;;3.60;;
5273;SDS011;56254;50.956;7.010;2022-11-21T05:27:18;12.03;;;3.83;;
5273;SDS011;56254;50.956;7.010;2022-11-21T05:29:44;16.70;;;4.03;;
5273;SDS011;56254;50.956;7.010;2022-11-21T05:32:10;15.47;;;4.60;;
5273;SDS011;56254;50.956;7.010;2022-11-21T05:34:36;12.20;;;4.53;;
5273;SDS011;56254;50.956;7.010;2022-11-21T05:37:01;25.70;;;4.67;;
5273;SDS011;56254;50.956;7.010;2022-11-21T05:39:27;20.63;;;5.10;;
5273;SDS011;56254;50.956;7.010;2022-11-21T05:41:54;16.43;;;4.80;;
5273;SDS011;56254;50.956;7.010;2022-11-21T05:44:19;17.43;;;4.03;;
5273;SDS011;56254;50.956;7.010;2022-11-21T05:46:45;10.17;;;4.87;;
5273;SDS011;56254;50.956;7.010;2022-11-21T05:49:11;13.93;;;5.33;;
5273;SDS011;56254;50.956;7.010;2022-11-21T05:51:37;17.47;;;5.63;;
5273;SDS011;56254;50.956;7.010;2022-11-21T05:54:03;34.60;;;7.30;;
5273;SDS011;56254;50.956;7.010;2022-11-21T05:56:29;17.40;;;6.17;;
5273;SDS011;56254;50.956;7.010;2022-11-21T05:58:56;16.93;;;5.40;;
5273;SDS011;56254;50.956;7.010;2022-11-21T06:01:23;16.03;;;5.90;;
5273;SDS011;56254;50.956;7.010;2022-11-21T06:04:07;28.90;;;7.07;;
5273;SDS011;56254;50.956;7.010;2022-11-21T06:06:33;23.87;;;6.80;;
5273;SDS011;56254;50.956;7.010;2022-11-21T06:08:59;21.27;;;6.67;;
5273;SDS011;56254;50.956;7.010;2022-11-21T06:11:25;19.87;;;7.97;;
5273;SDS011;56254;50.956;7.010;2022-11-21T06:13:51;19.63;;;7.27;;
5273;SDS011;56254;50.956;7.010;2022-11-21T06:16:17;14.40;;;6.03;;
5273;SDS011;56254;50.956;7.010;2022-11-21T06:18:44;18.77;;;6.93;;
5273;SDS011;56254;50.956;7.010;2022-11-21T06:23:43;20.90;;;8.80;;
5273;SDS011;56254;50.956;7.010;2022-11-21T06:26:13;25.87;;;8.90;;
5273;SDS011;56254;50.956;7.010;2022-11-21T06:28:40;17.00;;;8.00;;
5273;SDS011;56254;50.956;7.010;2022-11-21T06:31:10;24.37;;;9.13;;
5273;SDS011;56254;50.956;7.010;2022-11-21T06:33:40;18.50;;;9.63;;
5273;SDS011;56254;50.956;7.010;2022-11-21T06:36:08;15.87;;;8.97;;
5273;SDS011;56254;50.956;7.010;2022-11-21T06:38:37;18.53;;;8.80;;
5273;SDS011;56254;50.956;7.010;2022-11-21T06:41:08;23.57;;;9.50;;
5273;SDS011;56254;50.956;7.010;2022-11-21T06:43:39;17.50;;;9.37;;
5273;SDS011;56254;50.956;7.010;2022-11-21T06:46:21;25.50;;;10.73;;
5273;SDS011;56254;50.956;7.010;2022-11-21T06:48:50;23.67;;;10.20;;
5273;SDS011;56254;50.956;7.010;2022-11-21T06:51:17;35.33;;;9.33;;
5273;SDS011;56254;50.956;7.010;2022-11-21T06:53:45;24.47;;;9.33;;
5273;SDS011;56254;50.956;7.010;2022-11-21T06:56:13;32.40;;;10.00;;
5273;SDS011;56254;50.956;7.010;2022-11-21T06:58:39;23.10;;;8.87;;
5273;SDS011;56254;50.956;7.010;2022-11-21T07:01:07;25.03;;;8.83;;
5273;SDS011;56254;50.956;7.010;2022-11-21T07:03:37;19.23;;;9.93;;
5273;SDS011;56254;50.956;7.010;2022-11-21T07:06:03;30.80;;;9.03;;
5273;SDS011;56254;50.956;7.010;2022-11-21T07:08:31;15.13;;;7.77;;
5273;SDS011;56254;50.956;7.010;2022-11-21T07:10:59;14.60;;;7.30;;
5273;SDS011;56254;50.956;7.010;2022-11-21T07:13:31;19.17;;;7.70;;
5273;SDS011;56254;50.956;7.010;2022-11-21T07:16:08;17.40;;;8.87;;
5273;SDS011;56254;50.956;7.010;2022-11-21T07:18:38;19.50;;;7.90;;
5273;SDS011;56254;50.956;7.010;2022-11-21T07:21:04;15.47;;;6.00;;
5273;SDS011;56254;50.956;7.010;2022-11-21T07:23:31;19.07;;;7.63;;
5273;SDS011;56254;50.956;7.010;2022-11-21T07:25:59;21.90;;;6.80;;
5273;SDS011;56254;50.956;7.010;2022-11-21T07:28:30;17.13;;;6.60;;
5273;SDS011;56254;50.956;7.010;2022-11-21T07:30:58;17.87;;;6.53;;
5273;SDS011;56254;50.956;7.010;2022-11-21T07:33:25;26.23;;;6.57;;
5273;SDS011;56254;50.956;7.010;2022-11-21T07:35:51;20.13;;;6.60;;
5273;SDS011;56254;50.956;7.010;2022-11-21T07:38:21;10.50;;;6.90;;
5273;SDS011;56254;50.956;7.010;2022-11-21T07:40:48;14.93;;;5.80;;
5273;SDS011;56254;50.956;7.010;2022-11-21T07:43:14;20.80;;;6.50;;
5273;SDS011;56254;50.956;7.010;2022-11-21T07:45:40;15.43;;;5.70;;
5273;SDS011;56254;50.956;7.010;2022-11-21T07:48:06;44.77;;;17.50;;
5273;SDS011;56254;50.956;7.010;2022-11-21T07:50:32;29.00;;;7.10;;
5273;SDS011;56254;50.956;7.010;2022-11-21T07:53:03;15.57;;;6.33;;
5273;SDS011;56254;50.956;7.010;2022-11-21T07:55:30;29.73;;;6.80;;
5273;SDS011;56254;50.956;7.010;2022-11-21T07:57:58;17.47;;;5.93;;
5273;SDS011;56254;50.956;7.010;2022-11-21T08:00:26;10.50;;;5.40;;
5273;SDS011;56254;50.956;7.010;2022-11-21T08:02:53;14.97;;;6.33;;
5273;SDS011;56254;50.956;7.010;2022-11-21T08:05:19;17.47;;;7.60;;
5273;SDS011;56254;50.956;7.010;2022-11-21T08:07:45;19.10;;;7.53;;
5273;SDS011;56254;50.956;7.010;2022-11-21T08:10:11;15.10;;;7.23;;
5273;SDS011;56254;50.956;7.010;2022-11-21T08:12:37;21.30;;;6.90;;
5273;SDS011;56254;50.956;7.010;2022-11-21T08:15:06;14.03;;;8.00;;
5273;SDS011;56254;50.956;7.010;2022-11-21T08:17:33;9.83;;;6.20;;
5273;SDS011;56254;50.956;7.010;2022-11-21T08:19:59;23.53;;;8.23;;
5273;SDS011;56254;50.956;7.010;2022-11-21T08:22:25;14.43;;;6.67;;
5273;SDS011;56254;50.956;7.010;2022-11-21T08:24:51;17.47;;;7.00;;
5273;SDS011;56254;50.956;7.010;2022-11-21T08:27:20;13.00;;;6.20;;
5273;SDS011;56254;50.956;7.010;2022-11-21T08:29:47;19.90;;;6.00;;
5273;SDS011;56254;50.956;7.010;2022-11-21T08:32:12;14.30;;;7.20;;
5273;SDS011;56254;50.956;7.010;2022-11-21T08:34:38;15.47;;;6.00;;
5273;SDS011;56254;50.956;7.010;2022-11-21T08:37:04;19.53;;;7.50;;
5273;SDS011;56254;50.956;7.010;2022-11-21T08:39:30;12.77;;;6.73;;
5273;SDS011;56254;50.956;7.010;2022-11-21T08:41:56;11.00;;;7.20;;
5273;SDS011;56254;50.956;7.010;2022-11-21T08:44:28;11.47;;;6.77;;
5273;SDS011;56254;50.956;7.010;2022-11-21T08:46:55;19.33;;;7.40;;
5273;SDS011;56254;50.956;7.010;2022-11-21T08:49:21;22.70;;;7.70;;
5273;SDS011;56254;50.956;7.010;2022-11-21T08:51:46;17.97;;;8.37;;
5273;SDS011;56254;50.956;7.010;2022-11-21T08:54:15;27.83;;;7.87;;
5273;SDS011;56254;50.956;7.010;2022-11-21T08:56:42;13.97;;;6.77;;
5273;SDS011;56254;50.956;7.010;2022-11-21T08:59:08;21.17;;;7.53;;
5273;SDS011;56254;50.956;7.010;2022-11-21T09:01:34;18.33;;;7.63;;
5273;SDS011;56254;50.956;7.010;2022-11-21T09:03:59;21.23;;;7.60;;
5273;SDS011;56254;50.956;7.010;2022-11-21T09:06:25;17.33;;;8.87;;
5273;SDS011;56254;50.956;7.010;2022-11-21T09:08:51;16.77;;;8.70;;
5273;SDS011;56254;50.956;7.010;2022-11-21T09:11:17;17.97;;;8.00;;
5273;SDS011;56254;50.956;7.010;2022-11-21T09:13:43;33.80;;;8.13;;
5273;SDS011;56254;50.956;7.010;2022-11-21T09:16:28;23.03;;;9.73;;
5273;SDS011;56254;50.956;7.010;2022-11-21T09:19:12;14.60;;;8.20;;
5273;SDS011;56254;50.956;7.010;2022-11-21T09:21:38;15.50;;;8.23;;
5273;SDS011;56254;50.956;7.010;2022-11-21T09:24:04;16.63;;;8.63;;
5273;SDS011;56254;50.956;7.010;2022-11-21T09:26:29;17.57;;;8.67;;
5273;SDS011;56254;50.956;7.010;2022-11-21T09:28:57;22.80;;;8.87;;
5273;SDS011;56254;50.956;7.010;2022-11-21T09:31:23;18.90;;;10.20;;
5273;SDS011;56254;50.956;7.010;2022-11-21T09:33:50;14.27;;;8.40;;
5273;SDS011;56254;50.956;7.010;2022-11-21T09:36:16;34.73;;;13.77;;
5273;SDS011;56254;50.956;7.010;2022-11-21T09:38:41;21.70;;;11.07;;
5273;SDS011;56254;50.956;7.010;2022-11-21T09:41:09;29.77;;;13.93;;
5273;SDS011;56254;50.956;7.010;2022-11-21T09:46:46;38.10;;;15.50;;
5273;SDS011;56254;50.956;7.010;2022-11-21T09:49:15;16.93;;;9.70;;
5273;SDS011;56254;50.956;7.010;2022-11-21T09:51:42;27.13;;;10.33;;
5273;SDS011;56254;50.956;7.010;2022-11-21T09:54:15;20.53;;;10.60;;
5273;SDS011;56254;50.956;7.010;2022-11-21T09:56:46;13.20;;;8.90;;
5273;SDS011;56254;50.956;7.010;2022-11-21T10:02:01;23.20;;;9.30;;
5273;SDS011;56254;50.956;7.010;2022-11-21T10:04:35;20.83;;;9.47;;
5273;SDS011;56254;50.956;7.010;2022-11-21T10:23:41;9.53;;;5.07;;
5273;SDS011;56254;50.956;7.010;2022-11-21T10:28:53;9.17;;;4.33;;
5273;SDS011;56254;50.956;7.010;2022-11-21T10:31:20;9.07;;;4.07;;
5273;SDS011;56254;50.956;7.010;2022-11-21T10:33:46;6.07;;;3.60;;
5273;SDS011;56254;50.956;7.010;2022-11-21T10:36:23;6.83;;;4.00;;
5273;SDS011;56254;50.956;7.010;2022-11-21T10:38:55;12.10;;;5.03;;
5273;SDS011;56254;50.956;7.010;2022-11-21T10:41:37;7.17;;;3.30;;
5273;SDS011;56254;50.956;7.010;2022-11-21T10:44:22;8.00;;;3.87;;
5273;SDS011;56254;50.956;7.010;2022-11-21T10:47:12;9.37;;;4.83;;
5273;SDS011;56254;50.956;7.010;2022-11-21T10:50:03;5.60;;;3.93;;
5273;SDS011;56254;50.956;7.010;2022-11-21T10:52:34;7.53;;;4.27;;
5273;SDS011;56254;50.956;7.010;2022-11-21T10:57:39;16.40;;;3.80;;
5273;SDS011;56254;50.956;7.010;2022-11-21T11:02:42;6.90;;;2.60;;
5273;SDS011;56254;50.956;7.010;2022-11-21T11:05:52;7.30;;;3.27;;
5273;SDS011;56254;50.956;7.010;2022-11-21T11:08:23;7.37;;;3.13;;
5273;SDS011;56254;50.956;7.010;2022-11-21T11:11:04;6.70;;;2.53;;
5273;SDS011;56254;50.956;7.010;2022-11-21T11:13:31;14.40;;;2.90;;
5273;SDS011;56254;50.956;7.010;2022-11-21T11:18:39;9.07;;;2.47;;
5273;SDS011;56254;50.956;7.010;2022-11-21T11:21:19;6.20;;;2.73;;
5273;SDS011;56254;50.956;7.010;2022-11-21T11:23:47;13.30;;;1.90;;
5273;SDS011;56254;50.956;7.010;2022-11-21T11:26:32;10.13;;;1.77;;
5273;SDS011;56254;50.956;7.010;2022-11-21T11:32:13;2.50;;;1.10;;
5273;SDS011;56254;50.956;7.010;2022-11-21T11:34:57;4.10;;;1.83;;
5273;SDS011;56254;50.956;7.010;2022-11-21T11:37:37;4.27;;;1.40;;
5273;SDS011;56254;50.956;7.010;2022-11-21T11:45:59;4.20;;;1.37;;
5273;SDS011;56254;50.956;7.010;2022-11-21T11:48:55;10.13;;;1.60;;
5273;SDS011;56254;50.956;7.010;2022-11-21T11:51:39;2.90;;;1.10;;
5273;SDS011;56254;50.956;7.010;2022-11-21T11:54:14;4.03;;;1.13;;
5273;SDS011;56254;50.956;7.010;2022-11-21T11:56:43;6.40;;;2.10;;
5273;SDS011;56254;50.956;7.010;2022-11-21T11:59:15;8.03;;;1.70;;
5273;SDS011;56254;50.956;7.010;2022-11-21T12:04:53;6.10;;;1.60;;
5273;SDS011;56254;50.956;7.010;2022-11-21T12:07:33;16.23;;;1.80;;
5273;SDS011;56254;50.956;7.010;2022-11-21T12:23:26;4.53;;;1.30;;
5273;SDS011;56254;50.956;7.010;2022-11-21T12:25:57;1.73;;;1.20;;
5273;SDS011;56254;50.956;7.010;2022-11-21T12:34:12;7.50;;;2.17;;
5273;SDS011;56254;50.956;7.010;2022-11-21T12:39:43;4.23;;;1.60;;
5273;SDS011;56254;50.956;7.010;2022-11-21T12:45:06;3.43;;;1.30;;
5273;SDS011;56254;50.956;7.010;2022-11-21T12:54:37;8.80;;;1.67;;
5273;SDS011;56254;50.956;7.010;2022-11-21T12:57:13;12.10;;;1.57;;
5273;SDS011;56254;50.956;7.010;2022-11-21T12:59:45;6.63;;;1.77;;
5273;SDS011;56254;50.956;7.010;2022-11-21T13:04:48;6.03;;;1.50;;
5273;SDS011;56254;50.956;7.010;2022-11-21T13:07:15;2.30;;;1.30;;
5273;SDS011;56254;50.956;7.010;2022-11-21T13:09:42;2.30;;;1.27;;
5273;SDS011;56254;50.956;7.010;2022-11-21T13:12:17;14.20;;;1.43;;
5273;SDS011;56254;50.956;7.010;2022-11-21T13:15:17;1.90;;;1.30;;
5273;SDS011;56254;50.956;7.010;2022-11-21T13:18:20;6.23;;;1.10;;
5273;SDS011;56254;50.956;7.010;2022-11-21T13:20:52;12.60;;;1.97;;
5273;SDS011;56254;50.956;7.010;2022-11-21T13:23:39;11.27;;;1.57;;
5273;SDS011;56254;50.956;7.010;2022-11-21T13:28:52;10.00;;;1.50;;
5273;SDS011;56254;50.956;7.010;2022-11-21T13:31:32;7.27;;;1.20;;
5273;SDS011;56254;50.956;7.010;2022-11-21T13:34:02;12.83;;;1.80;;
5273;SDS011;56254;50.956;7.010;2022-11-21T13:47:10;4.33;;;1.40;;
5273;SDS011;56254;50.956;7.010;2022-11-21T13:50:03;11.93;;;2.03;;
5273;SDS011;56254;50.956;7.010;2022-11-21T14:03:39;3.70;;;1.57;;
5273;SDS011;56254;50.956;7.010;2022-11-21T14:09:18;6.30;;;1.60;;
5273;SDS011;56254;50.956;7.010;2022-11-21T14:11:57;5.13;;;1.20;;
5273;SDS011;56254;50.956;7.010;2022-11-21T14:19:58;4.00;;;1.77;;
5273;SDS011;56254;50.956;7.010;2022-11-21T14:22:46;2.10;;;1.30;;
5273;SDS011;56254;50.956;7.010;2022-11-21T14:25:22;11.23;;;1.63;;
5273;SDS011;56254;50.956;7.010;2022-11-21T14:28:10;6.20;;;1.50;;
5273;SDS011;56254;50.956;7.010;2022-11-21T14:30:41;8.27;;;2.17;;
5273;SDS011;56254;50.956;7.010;2022-11-21T14:33:27;3.57;;;1.20;;
5273;SDS011;56254;50.956;7.010;2022-11-21T14:35:57;2.13;;;1.10;;
5273;SDS011;56254;50.956;7.010;2022-11-21T14:38:27;6.33;;;1.43;;
5273;SDS011;56254;50.956;7.010;2022-11-21T14:41:17;6.20;;;1.70;;
5273;SDS011;56254;50.956;7.010;2022-11-21T14:46:26;7.70;;;1.60;;
5273;SDS011;56254;50.956;7.010;2022-11-21T14:48:53;9.00;;;1.77;;
5273;SDS011;56254;50.956;7.010;2022-11-21T14:51:21;8.40;;;1.53;;
5273;SDS011;56254;50.956;7.010;2022-11-21T14:53:49;10.13;;;1.53;;
5273;SDS011;56254;50.956;7.010;2022-11-21T14:56:27;5.00;;;1.40;;
5273;SDS011;56254;50.956;7.010;2022-11-21T14:58:56;2.20;;;1.60;;
5273;SDS011;56254;50.956;7.010;2022-11-21T15:01:32;2.87;;;1.37;;
5273;SDS011;56254;50.956;7.010;2022-11-21T15:04:02;5.43;;;1.83;;
5273;SDS011;56254;50.956;7.010;2022-11-21T15:06:29;21.97;;;2.93;;
5273;SDS011;56254;50.956;7.010;2022-11-21T15:09:03;7.00;;;1.50;;
5273;SDS011;56254;50.956;7.010;2022-11-21T15:11:33;6.73;;;1.80;;
5273;SDS011;56254;50.956;7.010;2022-11-21T15:14:50;6.57;;;2.23;;
5273;SDS011;56254;50.956;7.010;2022-11-21T15:16:59;1.80;;;1.40;;
5273;SDS011;56254;50.956;7.010;2022-11-21T15:19:28;6.23;;;1.63;;
5273;SDS011;56254;50.956;7.010;2022-11-21T15:21:56;3.70;;;1.80;;
5273;SDS011;56254;50.956;7.010;2022-11-21T15:24:28;9.43;;;1.83;;
5273;SDS011;56254;50.956;7.010;2022-11-21T15:26:56;5.03;;;1.57;;
5273;SDS011;56254;50.956;7.010;2022-11-21T15:29:22;4.17;;;1.60;;
5273;SDS011;56254;50.956;7.010;2022-11-21T15:32:04;7.63;;;1.90;;
5273;SDS011;56254;50.956;7.010;2022-11-21T15:34:33;6.50;;;1.63;;
5273;SDS011;56254;50.956;7.010;2022-11-21T15:39:45;9.27;;;1.90;;
5273;SDS011;56254;50.956;7.010;2022-11-21T15:47:38;6.93;;;1.60;;
5273;SDS011;56254;50.956;7.010;2022-11-21T15:50:04;4.83;;;1.70;;
5273;SDS011;56254;50.956;7.010;2022-11-21T15:52:31;2.23;;;1.70;;
5273;SDS011;56254;50.956;7.010;2022-11-21T15:55:11;3.93;;;1.60;;
5273;SDS011;56254;50.956;7.010;2022-11-21T15:57:42;2.40;;;1.77;;
5273;SDS011;56254;50.956;7.010;2022-11-21T16:00:08;7.03;;;1.73;;
5273;SDS011;56254;50.956;7.010;2022-11-21T16:02:35;5.53;;;1.80;;
5273;SDS011;56254;50.956;7.010;2022-11-21T16:05:01;3.53;;;1.70;;
5273;SDS011;56254;50.956;7.010;2022-11-21T16:07:27;6.43;;;1.60;;
5273;SDS011;56254;50.956;7.010;2022-11-21T16:09:52;6.80;;;2.47;;
5273;SDS011;56254;50.956;7.010;2022-11-21T16:12:19;12.40;;;2.27;;
5273;SDS011;56254;50.956;7.010;2022-11-21T16:14:45;5.50;;;2.07;;
5273;SDS011;56254;50.956;7.010;2022-11-21T16:17:11;10.80;;;1.77;;
5273;SDS011;56254;50.956;7.010;2022-11-21T16:19:37;7.80;;;2.17;;
5273;SDS011;56254;50.956;7.010;2022-11-21T16:22:03;3.47;;;1.97;;
5273;SDS011;56254;50.956;7.010;2022-11-21T16:24:29;6.63;;;2.63;;
5273;SDS011;56254;50.956;7.010;2022-11-21T16:26:54;10.20;;;2.63;;
5273;SDS011;56254;50.956;7.010;2022-11-21T16:29:21;6.43;;;2.53;;
5273;SDS011;56254;50.956;7.010;2022-11-21T16:31:48;13.63;;;3.70;;
5273;SDS011;56254;50.956;7.010;2022-11-21T16:34:18;5.70;;;3.00;;
5273;SDS011;56254;50.956;7.010;2022-11-21T16:36:44;16.20;;;5.83;;
5273;SDS011;56254;50.956;7.010;2022-11-21T16:39:10;19.60;;;4.70;;
5273;SDS011;56254;50.956;7.010;2022-11-21T16:41:35;7.30;;;3.13;;
5273;SDS011;56254;50.956;7.010;2022-11-21T16:44:03;13.47;;;3.00;;
5273;SDS011;56254;50.956;7.010;2022-11-21T16:46:34;12.20;;;2.33;;
5273;SDS011;56254;50.956;7.010;2022-11-21T16:49:07;4.13;;;2.20;;
5273;SDS011;56254;50.956;7.010;2022-11-21T16:51:34;9.30;;;1.93;;
5273;SDS011;56254;50.956;7.010;2022-11-21T16:53:59;8.73;;;2.50;;
5273;SDS011;56254;50.956;7.010;2022-11-21T16:56:25;17.47;;;2.70;;
5273;SDS011;56254;50.956;7.010;2022-11-21T16:58:52;8.97;;;2.57;;
5273;SDS011;56254;50.956;7.010;2022-11-21T17:01:19;6.07;;;2.33;;
5273;SDS011;56254;50.956;7.010;2022-11-21T17:03:49;7.90;;;3.13;;
5273;SDS011;56254;50.956;7.010;2022-11-21T17:06:17;12.30;;;2.77;;
5273;SDS011;56254;50.956;7.010;2022-11-21T17:08:45;5.03;;;2.27;;
5273;SDS011;56254;50.956;7.010;2022-11-21T17:11:15;12.63;;;2.70;;
5273;SDS011;56254;50.956;7.010;2022-11-21T17:13:44;7.00;;;2.90;;
5273;SDS011;56254;50.956;7.010;2022-11-21T17:16:11;7.80;;;2.50;;
5273;SDS011;56254;50.956;7.010;2022-11-21T17:18:38;8.00;;;2.30;;
5273;SDS011;56254;50.956;7.010;2022-11-21T17:21:08;13.80;;;2.87;;
5273;SDS011;56254;50.956;7.010;2022-11-21T17:23:36;14.30;;;2.87;;
5273;SDS011;56254;50.956;7.010;2022-11-21T17:26:04;5.10;;;1.80;;